Time;durP1;ratioP1;P1;durP2;ratioP2;P2;SDS_P1;SDS_P2;PMS_P1;PMS_P2;Temp;Humidity;BMP_temperature;BMP_pressure;BME280_temperature;BME280_humidity;BME280_pressure;Samples;Min_cycle;Max_cycle;Signal;HPM_P1;HPM_P2
2022/05/23 06:24:38;;;;;;;;;8.67;8.67;;;;;19.97;100.00;98625.34;6399633;22;46387;-94
2022/05/23 06:27:06;;;;;;;;;7.33;7.00;;;;;20.00;100.00;98619.91;6381579;22;45268;-88
2022/05/23 06:29:32;;;;;;;;;7.67;5.67;;;;;20.09;100.00;98613.47;6412061;22;45299;-87
2022/05/23 06:31:57;;;;;;;;;4.00;3.00;;;;;20.15;100.00;98609.81;6413413;22;45611;-87
2022/05/23 06:34:22;;;;;;;;;7.00;7.00;;;;;20.17;100.00;98598.19;6407281;22;45303;-85
2022/05/23 06:36:50;;;;;;;;;5.33;5.33;;;;;20.25;100.00;98599.75;6386860;22;45492;-89
2022/05/23 06:39:15;;;;;;;;;5.00;5.00;;;;;20.24;100.00;98588.22;6390827;22;47100;-89
2022/05/23 06:41:43;;;;;;;;;8.33;7.00;;;;;20.29;100.00;98594.28;6395762;22;45651;-87
2022/05/23 06:44:09;;;;;;;;;7.33;6.00;;;;;20.22;100.00;98587.41;6391770;22;44976;-89
2022/05/23 06:46:58;;;;;;;;;5.00;5.00;;;;;20.25;100.00;98560.69;6396187;22;44831;-88
2022/05/23 06:49:26;;;;;;;;;9.33;6.67;;;;;20.41;100.00;98558.41;6396623;22;46424;-87
2022/05/23 06:51:54;;;;;;;;;3.33;3.33;;;;;20.51;100.00;98564.31;6395896;22;45603;-87
2022/05/23 06:54:23;;;;;;;;;5.00;5.00;;;;;20.58;100.00;98551.69;6363787;22;45131;-88
2022/05/23 06:56:51;;;;;;;;;7.33;6.00;;;;;20.70;100.00;98560.19;6391237;22;45331;-88
2022/05/23 06:59:20;;;;;;;;;5.00;5.00;;;;;20.73;100.00;98560.09;6360470;22;47162;-89
2022/05/23 07:01:47;;;;;;;;;8.67;6.00;;;;;20.76;100.00;98552.03;6393183;22;44752;-89
2022/05/23 07:04:12;;;;;;;;;7.00;7.00;;;;;20.70;100.00;98530.88;6377801;22;45268;-88
2022/05/23 07:12:26;;;;;;;;;6.00;5.00;;;;;20.81;100.00;98539.41;6403404;22;45496;-89
2022/05/23 07:14:56;;;;;;;;;6.00;6.00;;;;;20.79;100.00;98548.38;6372169;22;45414;-89
2022/05/23 07:17:23;;;;;;;;;7.00;7.00;;;;;20.73;100.00;98550.31;6369904;22;45276;-89
2022/05/23 07:19:50;;;;;;;;;7.67;7.67;;;;;20.72;100.00;98553.91;6347877;22;46016;-87
2022/05/23 07:22:16;;;;;;;;;8.33;8.00;;;;;20.71;100.00;98557.50;6372809;22;45463;-87
2022/05/23 07:24:43;;;;;;;;;8.33;7.00;;;;;20.70;100.00;98557.53;6378051;22;45337;-88
2022/05/23 07:27:10;;;;;;;;;7.00;7.00;;;;;20.63;100.00;98549.75;6376549;22;45362;-87
2022/05/23 07:29:39;;;;;;;;;7.00;7.00;;;;;20.65;100.00;98571.00;6416539;22;46354;-86
2022/05/23 07:32:05;;;;;;;;;5.00;5.00;;;;;20.58;100.00;98577.47;6413632;22;45284;-87
2022/05/23 07:34:30;;;;;;;;;6.33;5.00;;;;;20.52;100.00;98562.53;6389392;22;45516;-88
2022/05/23 07:36:55;;;;;;;;;6.33;6.33;;;;;20.53;100.00;98569.63;6424275;22;44730;-89
2022/05/23 07:39:21;;;;;;;;;11.33;8.00;;;;;20.54;100.00;98584.66;6372086;22;47056;-89
2022/05/23 07:41:46;;;;;;;;;5.00;5.00;;;;;20.46;100.00;98568.91;6345414;22;45401;-88
2022/05/23 07:44:12;;;;;;;;;6.00;5.33;;;;;20.49;100.00;98563.50;6371181;22;45312;-88
2022/05/23 07:46:41;;;;;;;;;5.67;5.67;;;;;20.54;100.00;98582.00;6368952;22;45294;-88
2022/05/23 07:49:06;;;;;;;;;5.00;5.00;;;;;20.48;100.00;98577.75;6368478;22;46215;-88
2022/05/23 07:51:32;;;;;;;;;7.00;6.67;;;;;20.46;100.00;98573.38;6369265;22;45309;-89
2022/05/23 08:02:12;;;;;;;;;6.33;6.33;;;;;20.76;100.00;98472.03;6396526;22;45235;-88
2022/05/23 08:04:38;;;;;;;;;6.33;5.33;;;;;20.79;100.00;98495.06;6394949;22;45279;-88
2022/05/23 08:07:09;;;;;;;;;5.67;5.67;;;;;20.88;100.00;98522.28;6397073;22;45291;-87
2022/05/23 08:09:34;;;;;;;;;5.00;5.00;;;;;20.88;100.00;98511.63;6394865;22;46673;-88
2022/05/23 08:12:00;;;;;;;;;5.33;4.33;;;;;20.96;100.00;98514.03;6396960;22;45397;-88
2022/05/23 08:14:25;;;;;;;;;6.00;6.00;;;;;20.97;100.00;98515.78;6342052;22;45341;-88
2022/05/23 08:16:52;;;;;;;;;6.00;6.00;;;;;21.01;100.00;98523.66;6400444;22;45268;-88
2022/05/23 08:19:17;;;;;;;;;6.00;5.33;;;;;21.04;100.00;98537.81;6399159;22;45308;-88
2022/05/23 08:21:55;;;;;;;;;6.67;6.67;;;;;21.05;100.00;98525.34;6399611;22;45229;-88
2022/05/23 08:24:21;;;;;;;;;5.67;5.67;;;;;21.01;100.00;98521.00;6398970;22;45653;-88
2022/05/23 08:26:47;;;;;;;;;9.33;7.67;;;;;20.96;100.00;98519.38;6372495;22;45307;-87
2022/05/23 08:29:13;;;;;;;;;7.67;6.67;;;;;20.95;100.00;98519.44;6399347;22;45288;-86
2022/05/23 08:31:39;;;;;;;;;8.00;7.67;;;;;20.95;100.00;98524.75;6398321;22;45344;-86
2022/05/23 08:34:05;;;;;;;;;10.33;9.00;;;;;20.92;100.00;98538.19;6395833;22;45267;-87
2022/05/23 08:36:31;;;;;;;;;7.33;7.00;;;;;20.81;100.00;98538.53;6397986;22;45324;-87
2022/05/23 08:38:56;;;;;;;;;7.00;7.00;;;;;20.62;100.00;98545.31;6402402;22;46839;-86
2022/05/23 08:41:28;;;;;;;;;8.00;7.00;;;;;20.50;100.00;98551.94;6396612;22;45254;-87
2022/05/23 08:44:06;;;;;;;;;7.33;7.33;;;;;20.38;100.00;98546.97;6371229;22;45772;-86
2022/05/23 08:47:06;;;;;;;;;10.67;9.00;;;;;20.28;100.00;98546.41;6403816;22;45456;-86
2022/05/23 08:50:06;;;;;;;;;7.67;7.00;;;;;20.21;100.00;98540.34;6397452;22;45397;-86
2022/05/23 08:52:35;;;;;;;;;8.33;8.33;;;;;20.26;100.00;98543.75;6398577;22;45257;-88
2022/05/23 08:55:06;;;;;;;;;7.33;7.33;;;;;20.25;100.00;98555.34;6401476;22;45437;-88
2022/05/23 08:57:55;;;;;;;;;6.00;6.00;;;;;20.19;100.00;98553.72;6374464;22;45371;-87
2022/05/23 09:00:28;;;;;;;;;9.67;8.00;;;;;20.18;100.00;98551.97;6400597;22;45418;-87
2022/05/23 09:03:13;;;;;;;;;8.67;8.33;;;;;20.19;100.00;98539.53;6372648;22;45518;-88
2022/05/23 09:05:44;;;;;;;;;9.33;9.00;;;;;20.24;100.00;98550.94;6402061;22;45253;-88
2022/05/23 09:08:23;;;;;;;;;12.67;9.33;;;;;20.27;100.00;98547.28;6374422;22;45341;-86
2022/05/23 09:10:59;;;;;;;;;14.33;11.00;;;;;20.28;100.00;98552.56;6402929;22;46359;-88
2022/05/23 09:13:30;;;;;;;;;9.33;9.33;;;;;20.30;100.00;98552.53;6371980;22;45366;-88
2022/05/23 09:16:04;;;;;;;;;14.00;10.33;;;;;20.25;100.00;98551.81;6372111;22;45296;-88
2022/05/23 09:18:40;;;;;;;;;11.00;9.67;;;;;20.27;100.00;98553.50;6401499;22;45632;-88
2022/05/23 09:21:08;;;;;;;;;8.33;8.33;;;;;20.21;100.00;98549.22;6397961;22;46028;-88
2022/05/23 09:23:45;;;;;;;;;11.67;11.67;;;;;20.27;100.00;98550.84;6401566;22;45397;-87
2022/05/23 09:26:20;;;;;;;;;11.67;10.67;;;;;20.32;100.00;98537.38;6386520;22;44740;-87
2022/05/23 09:28:45;;;;;;;;;13.00;11.00;;;;;20.34;100.00;98540.84;6403934;22;45497;-88
2022/05/23 09:31:25;;;;;;;;;11.00;10.00;;;;;20.46;100.00;98542.25;6401876;22;46618;-88
2022/05/23 09:33:54;;;;;;;;;14.00;13.00;;;;;20.57;100.00;98538.38;6372331;22;45268;-87
2022/05/23 09:36:43;;;;;;;;;14.00;12.33;;;;;20.71;100.00;98536.19;6370653;22;45493;-86
2022/05/23 09:39:11;;;;;;;;;11.00;11.00;;;;;20.88;100.00;98532.94;6400844;22;45608;-87
2022/05/23 09:50:09;;;;;;;;;11.67;11.67;;;;;21.83;100.00;98509.25;6378962;22;45339;-87
2022/05/23 09:52:47;;;;;;;;;14.33;12.67;;;;;22.02;100.00;98499.72;6375688;22;46313;-87
2022/05/23 09:55:22;;;;;;;;;12.00;10.67;;;;;22.22;100.00;98509.63;6376314;22;45252;-88
2022/05/23 09:57:53;;;;;;;;;17.00;14.67;;;;;22.49;100.00;98514.81;6401908;22;45198;-88
2022/05/23 10:00:20;;;;;;;;;15.67;13.67;;;;;22.63;100.00;98513.38;6398693;22;45286;-88
2022/05/23 10:02:51;;;;;;;;;13.33;13.33;;;;;22.67;100.00;98515.00;6399740;22;45315;-87
2022/05/23 10:05:27;;;;;;;;;14.33;14.00;;;;;22.66;100.00;98514.13;6403337;22;45307;-87
2022/05/23 10:07:56;;;;;;;;;17.00;15.00;;;;;22.67;100.00;98509.66;6404992;22;45303;-88
2022/05/23 10:10:31;;;;;;;;;15.67;14.67;;;;;22.69;100.00;98512.25;6399118;22;45265;-87
2022/05/23 10:13:28;;;;;;;;;14.67;13.67;;;;;22.65;100.00;98507.03;6398025;22;46412;-87
2022/05/23 10:16:16;;;;;;;;;16.33;15.67;;;;;22.59;100.00;98512.66;6401257;22;45261;-87
2022/05/23 10:19:03;;;;;;;;;12.33;12.33;;;;;22.53;100.00;98508.41;6398381;22;45382;-88
2022/05/23 10:21:39;;;;;;;;;13.33;12.67;;;;;22.44;100.00;98509.66;6400922;22;45367;-86
2022/05/23 10:24:09;;;;;;;;;16.33;14.67;;;;;22.26;100.00;98521.94;6394384;22;45479;-88
2022/05/23 10:26:42;;;;;;;;;15.67;15.33;;;;;22.01;100.00;98524.69;6401625;22;45320;-88
2022/05/23 10:29:26;;;;;;;;;13.67;12.00;;;;;21.83;100.00;98537.75;6370652;22;45360;-88
2022/05/23 10:32:07;;;;;;;;;15.67;14.00;;;;;21.79;100.00;98545.03;6397398;22;45353;-87
2022/05/23 10:34:42;;;;;;;;;15.00;14.67;;;;;21.99;100.00;98532.75;6368513;22;47448;-86
2022/05/23 10:37:15;;;;;;;;;13.33;12.33;;;;;22.08;100.00;98535.09;6368167;22;45264;-88
2022/05/23 10:42:34;;;;;;;;;15.00;14.00;;;;;22.09;100.00;98534.16;6398691;22;45318;-88
2022/05/23 10:45:29;;;;;;;;;11.33;11.33;;;;;22.02;100.00;98529.97;6401869;22;45524;-88
2022/05/23 10:48:32;;;;;;;;;13.00;12.00;;;;;21.91;100.00;98518.81;6409964;22;45570;-88
2022/05/23 10:51:05;;;;;;;;;19.67;16.00;;;;;21.80;100.00;98533.41;6376231;22;45381;-90
2022/05/23 10:53:42;;;;;;;;;16.00;16.00;;;;;21.65;100.00;98534.84;6397436;22;45699;-91
2022/05/23 10:56:18;;;;;;;;;18.00;14.33;;;;;21.53;100.00;98538.81;6371856;22;46261;-90
2022/05/23 10:58:56;;;;;;;;;14.00;14.00;;;;;21.46;100.00;98542.63;6404728;22;45399;-89
2022/05/23 11:01:40;;;;;;;;;14.00;13.00;;;;;21.35;100.00;98535.88;6401026;22;45284;-88
2022/05/23 11:04:37;;;;;;;;;12.67;12.33;;;;;21.22;100.00;98546.09;6359153;22;45521;-88
2022/05/23 11:07:36;;;;;;;;;11.00;10.00;;;;;21.05;100.00;98533.34;6352121;22;45245;-87
2022/05/23 11:10:14;;;;;;;;;15.00;15.00;;;;;20.80;100.00;98519.00;6362626;22;45075;-88
2022/05/23 11:12:40;;;;;;;;;15.00;15.00;;;;;20.78;100.00;98544.84;6352465;22;44976;-87
2022/05/23 11:15:24;;;;;;;;;16.00;14.67;;;;;20.63;100.00;98552.41;6352121;22;45219;-88
2022/05/23 11:18:10;;;;;;;;;13.67;13.67;;;;;20.48;100.00;98548.44;6359695;22;47210;-89
2022/05/23 11:20:38;;;;;;;;;15.33;12.67;;;;;20.28;100.00;98533.06;6356414;22;45300;-90
2022/05/23 11:23:09;;;;;;;;;16.33;15.00;;;;;20.26;100.00;98553.53;6366771;22;46081;-92
2022/05/23 11:25:39;;;;;;;;;19.00;16.00;;;;;20.22;100.00;98555.44;6423427;22;44744;-90
2022/05/23 11:34:07;;;;;;;;;19.00;14.33;;;;;20.08;100.00;98543.34;6412994;22;45230;-87
2022/05/23 11:39:43;;;;;;;;;15.67;15.67;;;;;20.10;100.00;98559.31;6309744;22;45316;-85
2022/05/23 11:42:32;;;;;;;;;21.67;14.00;;;;;20.15;100.00;98561.88;6303527;22;45436;-85
2022/05/23 11:47:53;;;;;;;;;18.67;15.67;;;;;20.09;100.00;98549.56;6300757;22;45344;-84
2022/05/23 11:50:31;;;;;;;;;18.33;16.67;;;;;20.07;100.00;98552.28;6300414;22;48080;-87
2022/05/23 11:53:10;;;;;;;;;15.00;12.33;;;;;20.04;100.00;98555.03;6297890;22;45341;-84
2022/05/23 11:55:50;;;;;;;;;11.00;10.00;;;;;19.94;100.00;98565.06;6294977;22;45800;-85
2022/05/23 11:58:24;;;;;;;;;12.67;12.33;;;;;19.87;100.00;98556.38;6296469;22;45339;-85
2022/05/23 12:01:01;;;;;;;;;14.33;10.33;;;;;19.75;100.00;98567.38;6297300;22;45969;-86
2022/05/23 12:03:26;;;;;;;;;15.00;15.00;;;;;19.62;100.00;98569.50;6295585;22;45311;-86
2022/05/23 12:06:24;;;;;;;;;16.67;15.00;;;;;19.56;100.00;98567.00;6297178;22;45636;-86
2022/05/23 12:09:13;;;;;;;;;16.67;14.33;;;;;19.55;100.00;98584.75;6297007;22;45331;-87
2022/05/23 12:11:43;;;;;;;;;14.00;12.67;;;;;19.53;100.00;98589.25;6297796;22;45328;-87
2022/05/23 12:14:19;;;;;;;;;13.67;12.33;;;;;19.62;100.00;98586.34;6305717;22;45371;-86
2022/05/23 12:17:05;;;;;;;;;16.67;13.00;;;;;19.66;100.00;98587.13;6396195;22;45359;-86
2022/05/23 12:19:40;;;;;;;;;19.33;17.67;;;;;19.65;100.00;98588.91;6395663;22;45358;-86
2022/05/23 12:22:22;;;;;;;;;13.00;12.00;;;;;19.65;100.00;98588.03;6396266;22;45594;-86
2022/05/23 12:25:07;;;;;;;;;17.00;17.00;;;;;19.76;100.00;98585.09;6366028;22;45747;-85
2022/05/23 12:27:36;;;;;;;;;22.00;16.33;;;;;19.89;100.00;98582.97;6367271;22;45560;-86
2022/05/23 12:30:16;;;;;;;;;14.67;14.67;;;;;19.99;100.00;98586.25;6367566;22;45417;-86
2022/05/23 12:32:54;;;;;;;;;16.00;13.00;;;;;20.05;100.00;98586.03;6365656;22;47354;-87
2022/05/23 12:35:31;;;;;;;;;11.33;9.67;;;;;20.05;100.00;98590.53;6365993;22;45931;-87
2022/05/23 12:37:57;;;;;;;;;15.67;11.00;;;;;20.02;100.00;98598.59;6367150;22;45328;-86
2022/05/23 12:40:31;;;;;;;;;12.33;12.33;;;;;20.05;100.00;98602.03;6367485;22;45352;-86
2022/05/23 12:42:57;;;;;;;;;12.00;12.00;;;;;20.07;100.00;98602.88;6396219;22;45333;-87
2022/05/23 12:45:59;;;;;;;;;10.67;9.00;;;;;20.10;100.00;98609.91;6395553;22;45250;-87
2022/05/23 12:49:03;;;;;;;;;13.00;13.00;;;;;20.09;100.00;98609.03;6395424;22;45280;-86
2022/05/23 12:51:46;;;;;;;;;12.33;11.67;;;;;20.05;100.00;98620.66;6302140;22;45685;-86
2022/05/23 12:54:23;;;;;;;;;12.00;11.00;;;;;20.01;100.00;98618.13;6326511;22;46274;-86
2022/05/23 12:57:36;;;;;;;;;15.00;12.67;;;;;20.02;100.00;98627.88;6328988;22;45368;-86
2022/05/23 13:00:05;;;;;;;;;16.00;11.00;;;;;20.06;100.00;98626.88;6289899;22;45476;-86
2022/05/23 13:03:02;;;;;;;;;13.33;11.67;;;;;20.15;100.00;98625.78;6328743;22;45515;-86
2022/05/23 13:05:49;;;;;;;;;17.33;14.33;;;;;20.31;100.00;98624.41;6301098;22;47438;-87
2022/05/23 13:08:24;;;;;;;;;16.33;16.00;;;;;20.47;100.00;98626.63;6301718;22;45327;-85
2022/05/23 13:10:59;;;;;;;;;12.67;12.67;;;;;20.60;100.00;98634.25;6329484;22;45424;-86
2022/05/23 13:13:35;;;;;;;;;14.00;12.33;;;;;20.68;100.00;98636.69;6301994;22;45389;-86
2022/05/23 13:16:20;;;;;;;;;14.33;10.33;;;;;20.74;100.00;98641.84;6330220;22;45469;-85
2022/05/23 13:24:48;;;;;;;;;14.67;12.00;;;;;21.52;100.00;98638.47;6329455;22;45391;-86
2022/05/23 13:27:03;;;;;;;;;11.00;11.00;;;;;23.41;100.00;98616.38;6331160;22;45420;-86
2022/05/23 13:29:29;;;;;;;;;10.33;10.33;;;;;25.30;100.00;98576.56;6361053;22;45331;-86
2022/05/23 13:32:13;;;;;;;;;10.00;10.00;;;;;26.34;100.00;98564.00;6396088;22;45781;-86
2022/05/23 13:34:42;;;;;;;;;8.33;7.33;;;;;26.59;100.00;98592.25;6365905;22;45466;-86
2022/05/23 13:37:22;;;;;;;;;9.00;9.00;;;;;26.42;100.00;98582.41;6369053;22;47088;-87
2022/05/23 13:39:47;;;;;;;;;9.00;8.00;;;;;25.97;100.00;98586.59;6357742;22;45334;-87
2022/05/23 13:42:19;;;;;;;;;7.00;7.00;;;;;25.67;100.00;98590.78;6425596;22;44630;-87
2022/05/23 13:44:44;;;;;;;;;8.67;8.67;;;;;25.89;100.00;98586.13;6383737;22;45899;-87
2022/05/23 13:47:16;;;;;;;;;7.00;5.33;;;;;26.15;100.00;98588.34;6355459;22;46611;-87
2022/05/23 13:49:46;;;;;;;;;6.67;6.00;;;;;26.57;100.00;98579.84;6384381;22;45611;-87
2022/05/23 13:52:17;;;;;;;;;6.67;5.33;;;;;26.61;100.00;98601.13;6379637;22;45284;-85
2022/05/23 13:54:50;;;;;;;;;7.33;6.00;;;;;26.31;100.00;98605.38;6377990;22;45364;-85
2022/05/23 13:57:19;;;;;;;;;6.00;5.67;;;;;26.20;100.00;98613.16;6379823;22;47241;-87
2022/05/23 13:59:53;;;;;;;;;4.00;4.00;;;;;25.94;100.00;98618.13;6381705;22;45269;-87
2022/05/23 14:02:24;;;;;;;;;5.67;4.67;;;;;25.87;100.00;98629.19;6382648;22;45307;-85
2022/05/23 14:04:53;;;;;;;;;5.00;4.67;;;;;25.77;100.00;98642.22;6379427;22;45365;-87
2022/05/23 14:07:23;;;;;;;;;7.00;6.00;;;;;26.08;100.00;98639.75;6380766;22;45392;-86
2022/05/23 14:09:52;;;;;;;;;5.33;4.67;;;;;26.00;100.00;98648.22;6382844;22;45107;-87
2022/05/23 14:12:21;;;;;;;;;11.33;8.00;;;;;25.65;100.00;98659.84;6369990;22;45303;-88
2022/05/23 14:14:54;;;;;;;;;6.67;6.67;;;;;25.27;100.00;98665.31;6365932;22;45474;-85
2022/05/23 14:17:25;;;;;;;;;5.67;5.67;;;;;25.16;100.00;98674.75;6384772;22;45380;-88
2022/05/23 14:19:53;;;;;;;;;9.00;7.33;;;;;25.07;100.00;98659.13;6386212;22;45272;-88
2022/05/23 14:22:32;;;;;;;;;7.00;5.00;;;;;24.91;100.00;98673.25;6381715;22;45391;-86
2022/05/23 14:25:11;;;;;;;;;4.00;4.00;;;;;24.59;100.00;98692.59;6378325;22;45484;-86
2022/05/23 14:27:49;;;;;;;;;5.00;4.33;;;;;24.15;100.00;98685.56;6384511;22;48257;-88
2022/05/23 14:30:24;;;;;;;;;5.00;4.00;;;;;23.79;100.00;98701.38;6377371;22;45291;-89
2022/05/23 14:33:17;;;;;;;;;3.00;3.00;;;;;23.36;100.00;98710.25;6375450;22;45194;-88
2022/05/23 14:36:14;;;;;;;;;2.33;2.33;;;;;23.03;100.00;98705.31;6375234;22;45255;-87
2022/05/23 14:38:46;;;;;;;;;5.00;5.00;;;;;22.69;100.00;98719.03;6347265;22;48313;-87
2022/05/23 14:41:18;;;;;;;;;6.00;4.67;;;;;22.40;100.00;98737.00;6374089;22;45298;-87
2022/05/23 14:43:44;;;;;;;;;6.67;5.00;;;;;22.15;100.00;98721.84;6369299;22;45228;-87
2022/05/23 14:46:23;;;;;;;;;4.00;4.00;;;;;21.92;100.00;98728.88;6366411;22;45409;-86
2022/05/23 14:48:58;;;;;;;;;4.00;4.00;;;;;21.76;100.00;98732.03;6336268;22;47351;-87
2022/05/23 14:51:38;;;;;;;;;4.67;4.67;;;;;21.59;100.00;98724.59;6372283;22;45335;-90
2022/05/23 14:56:54;;;;;;;;;3.67;3.67;;;;;21.36;100.00;98731.53;6370905;22;45241;-88
2022/05/23 15:02:16;;;;;;;;;4.33;4.33;;;;;21.07;100.00;98729.75;6364018;22;45556;-88
2022/05/23 15:04:42;;;;;;;;;4.00;4.00;;;;;20.97;100.00;98737.13;6334788;22;45569;-87
2022/05/23 15:07:09;;;;;;;;;5.67;4.67;;;;;20.89;100.00;98744.47;6339572;22;45545;-87
2022/05/23 15:09:35;;;;;;;;;5.00;3.67;;;;;20.80;100.00;98758.03;6338005;22;47312;-88
2022/05/23 15:12:01;;;;;;;;;5.00;4.00;;;;;20.69;100.00;98753.03;6361813;22;45470;-88
2022/05/23 15:14:31;;;;;;;;;5.00;4.00;;;;;20.64;100.00;98756.69;6368225;22;45428;-88
2022/05/23 15:16:56;;;;;;;;;4.67;3.67;;;;;20.63;100.00;98770.06;6337701;22;45387;-88
2022/05/23 15:19:21;;;;;;;;;3.67;3.67;;;;;20.53;100.00;98770.34;6364272;22;46328;-88
2022/05/23 15:21:47;;;;;;;;;4.33;3.00;;;;;20.44;100.00;98767.91;6366164;22;45295;-88
2022/05/23 15:24:14;;;;;;;;;3.00;3.00;;;;;20.39;100.00;98764.50;6339570;22;45338;-87
2022/05/23 15:26:43;;;;;;;;;5.00;4.00;;;;;20.49;100.00;98782.00;6367239;22;45613;-88
2022/05/23 15:29:09;;;;;;;;;3.00;3.00;;;;;20.46;100.00;98763.41;6348215;22;48101;-88
2022/05/23 15:31:43;;;;;;;;;2.00;2.00;;;;;20.44;100.00;98765.25;6376329;22;45325;-88
2022/05/23 15:34:08;;;;;;;;;3.00;3.00;;;;;20.45;100.00;98787.44;6364690;22;45466;-89
2022/05/23 15:36:34;;;;;;;;;3.00;3.00;;;;;20.47;100.00;98788.28;6364614;22;45471;-88
2022/05/23 15:38:59;;;;;;;;;4.00;3.00;;;;;20.43;100.00;98787.50;6361082;22;46322;-89
2022/05/23 15:41:25;;;;;;;;;3.00;3.00;;;;;20.32;100.00;98786.00;6333517;22;45194;-89
2022/05/23 15:43:50;;;;;;;;;4.00;2.67;;;;;20.31;100.00;98794.91;6336229;22;45267;-88
2022/05/23 15:46:22;;;;;;;;;4.00;4.00;;;;;20.28;100.00;98797.63;6369795;22;46014;-88
2022/05/23 15:48:48;;;;;;;;;4.00;4.00;;;;;20.16;100.00;98784.63;6338846;22;48053;-89
2022/05/23 15:51:15;;;;;;;;;4.00;4.00;;;;;20.10;100.00;98786.50;6332741;22;45371;-87
2022/05/23 15:53:41;;;;;;;;;5.67;4.33;;;;;20.13;100.00;98796.25;6335537;22;45367;-89
2022/05/23 15:56:09;;;;;;;;;5.67;5.00;;;;;20.06;100.00;98786.63;6367731;22;45234;-88
2022/05/23 15:58:36;;;;;;;;;4.67;4.67;;;;;20.04;100.00;98792.00;6340387;22;47046;-89
2022/05/23 16:01:02;;;;;;;;;3.00;3.00;;;;;19.99;100.00;98791.25;6339969;22;45656;-87
2022/05/23 16:03:30;;;;;;;;;5.00;5.00;;;;;19.95;100.00;98800.22;6337866;22;45347;-89
2022/05/23 16:05:56;;;;;;;;;6.00;6.00;;;;;19.80;100.00;98809.44;6343836;22;45260;-92
2022/05/23 16:08:21;;;;;;;;;6.33;6.33;;;;;19.71;100.00;98824.75;6374229;22;46461;-92
2022/05/23 16:10:59;;;;;;;;;6.67;6.00;;;;;19.53;100.00;98823.38;6342786;22;45170;-89
2022/05/23 16:13:25;;;;;;;;;5.33;5.33;;;;;19.35;100.00;98814.91;6370535;22;45406;-92
2022/05/23 16:15:54;;;;;;;;;7.33;6.33;;;;;19.28;100.00;98802.63;6342586;22;45344;-92
2022/05/23 16:18:22;;;;;;;;;6.33;4.00;;;;;19.14;100.00;98803.81;6373679;22;45496;-92
2022/05/23 16:20:47;;;;;;;;;7.00;7.00;;;;;19.18;100.00;98821.47;6349113;22;45228;-91
2022/05/23 16:23:13;;;;;;;;;3.67;3.67;;;;;19.08;100.00;98812.78;6379728;22;45228;-93
2022/05/23 16:25:43;;;;;;;;;5.33;3.33;;;;;19.08;100.00;98825.19;6346573;22;45296;-93
2022/05/23 16:28:10;;;;;;;;;6.00;5.00;;;;;19.04;100.00;98820.84;6382786;22;45510;-93
2022/05/23 16:38:40;;;;;;;;;5.00;5.00;;;;;18.96;100.00;98835.19;6409154;22;45399;-92
2022/05/23 16:41:06;;;;;;;;;6.33;6.00;;;;;18.99;100.00;98840.41;6408977;22;45248;-93
2022/05/23 16:43:32;;;;;;;;;5.33;5.33;;;;;18.97;100.00;98855.53;6408985;22;45445;-93
2022/05/23 16:45:58;;;;;;;;;5.67;5.67;;;;;18.96;100.00;98855.56;6417594;22;44704;-91
2022/05/23 16:48:24;;;;;;;;;5.00;4.00;;;;;18.92;100.00;98848.53;6385506;22;45300;-91
2022/05/23 16:50:50;;;;;;;;;4.67;3.67;;;;;18.80;100.00;98837.25;6381844;22;45348;-92
2022/05/23 16:53:16;;;;;;;;;5.00;5.00;;;;;18.83;100.00;98861.13;6407758;22;45401;-90
2022/05/23 16:55:41;;;;;;;;;6.00;6.00;;;;;18.76;100.00;98854.19;6350245;22;45536;-89
2022/05/23 16:58:07;;;;;;;;;6.00;4.00;;;;;18.67;100.00;98857.88;6407399;22;45310;-89
2022/05/23 17:00:33;;;;;;;;;6.00;6.00;;;;;18.70;100.00;98857.81;6377326;22;45438;-92
2022/05/23 17:03:00;;;;;;;;;5.00;5.00;;;;;18.73;100.00;98870.19;6398766;22;45314;-90
2022/05/23 17:05:26;;;;;;;;;7.67;6.00;;;;;18.70;100.00;98865.78;6367024;22;45359;-90
2022/05/23 17:07:52;;;;;;;;;5.00;4.67;;;;;18.71;100.00;98856.06;6426692;22;46276;-90
2022/05/23 17:10:18;;;;;;;;;6.33;6.33;;;;;18.80;100.00;98870.94;6417463;22;45173;-90
2022/05/23 17:12:45;;;;;;;;;6.00;6.00;;;;;18.75;100.00;98857.72;6403364;22;45279;-90
2022/05/23 17:15:11;;;;;;;;;5.00;5.00;;;;;18.73;100.00;98863.09;6373067;22;45395;-91
2022/05/23 17:17:37;;;;;;;;;6.67;5.00;;;;;18.71;100.00;98861.38;6378972;22;47084;-94
2022/05/23 17:20:05;;;;;;;;;7.00;4.00;;;;;18.67;100.00;98870.28;6407342;22;45721;-91
2022/05/23 17:22:30;;;;;;;;;5.00;5.00;;;;;18.63;100.00;98866.81;6381449;22;45289;-92
2022/05/23 17:24:59;;;;;;;;;7.00;6.67;;;;;18.59;100.00;98873.06;6382057;22;45166;-93
2022/05/23 17:27:25;;;;;;;;;6.00;6.00;;;;;18.51;100.00;98858.16;6369096;22;48008;-89
2022/05/23 17:29:50;;;;;;;;;6.00;6.00;;;;;18.55;100.00;98861.66;6370159;22;45604;-85
2022/05/23 17:32:15;;;;;;;;;7.67;6.00;;;;;18.62;100.00;98857.97;6372297;22;45350;-89
2022/05/23 17:34:41;;;;;;;;;6.00;6.00;;;;;18.85;100.00;98863.75;6410053;22;45341;-88
2022/05/23 17:37:06;;;;;;;;;7.33;4.00;;;;;18.95;100.00;98865.31;6374241;22;47399;-86
2022/05/23 17:39:31;;;;;;;;;3.00;3.00;;;;;18.93;100.00;98874.22;6409392;22;45314;-94
2022/05/23 17:42:00;;;;;;;;;4.00;2.67;;;;;18.89;100.00;98870.75;6406732;22;45655;-87
2022/05/23 17:44:26;;;;;;;;;3.67;3.67;;;;;18.85;100.00;98872.59;6372843;22;45438;-84
2022/05/23 17:46:52;;;;;;;;;2.67;2.67;;;;;18.83;100.00;98871.75;6394944;22;45338;-92
2022/05/23 17:49:18;;;;;;;;;1.67;1.67;;;;;18.89;100.00;98870.75;6395345;22;45294;-85
2022/05/23 17:51:43;;;;;;;;;3.67;3.00;;;;;18.89;100.00;98853.94;6385088;22;45422;-88
2022/05/23 17:54:09;;;;;;;;;2.00;2.00;;;;;18.86;100.00;98837.13;6391864;22;45304;-87
2022/05/23 17:56:36;;;;;;;;;4.00;2.00;;;;;18.83;100.00;98838.97;6416399;22;47856;-89
2022/05/23 17:59:02;;;;;;;;;3.00;3.00;;;;;18.72;100.00;98831.22;6412708;22;45584;-89
2022/05/23 18:01:27;;;;;;;;;1.00;1.00;;;;;18.67;100.00;98833.06;6411747;22;45359;-90
2022/05/23 18:04:01;;;;;;;;;1.00;1.00;;;;;18.54;100.00;98846.59;6413051;22;45321;-88
2022/05/23 18:06:27;;;;;;;;;2.00;2.00;;;;;18.51;100.00;98849.31;6400777;22;47999;-87
2022/05/23 18:08:53;;;;;;;;;3.00;3.00;;;;;18.46;100.00;98854.69;6401968;22;45258;-87
2022/05/23 18:11:22;;;;;;;;;2.00;2.00;;;;;18.41;100.00;98859.22;6406856;22;45285;-93
2022/05/23 18:19:21;;;;;;;;;2.00;2.00;;;;;18.23;100.00;98879.00;6402692;22;45258;-86
2022/05/23 18:21:53;;;;;;;;;1.00;1.00;;;;;18.13;100.00;98876.47;6405032;22;45308;-87
2022/05/23 18:24:20;;;;;;;;;1.33;1.33;;;;;18.08;100.00;98883.63;6369337;22;45220;-87
2022/05/23 18:26:46;;;;;;;;;1.67;1.67;;;;;18.05;100.00;98878.34;6400205;22;45408;-86
2022/05/23 18:29:11;;;;;;;;;1.67;1.67;;;;;18.02;100.00;98878.41;6380100;22;45327;-85
2022/05/23 18:31:37;;;;;;;;;2.00;2.00;;;;;18.02;100.00;98889.00;6402180;22;45387;-85
2022/05/23 18:34:02;;;;;;;;;2.00;0.67;;;;;17.98;100.00;98891.75;6396047;22;45552;-85
2022/05/23 18:36:28;;;;;;;;;1.33;1.33;;;;;17.98;100.00;98883.78;6393880;22;46121;-85
2022/05/23 18:38:54;;;;;;;;;1.00;1.00;;;;;18.03;100.00;98890.78;6399414;22;45405;-85
2022/05/23 18:41:21;;;;;;;;;2.33;2.33;;;;;18.08;100.00;98896.91;6406467;22;45275;-87
2022/05/23 18:43:48;;;;;;;;;1.00;1.00;;;;;18.11;100.00;98901.28;6400294;22;45226;-85
2022/05/23 18:46:13;;;;;;;;;1.67;1.67;;;;;18.09;100.00;98901.31;6423755;22;46489;-85
2022/05/23 18:51:22;;;;;;;;;1.67;1.00;;;;;18.16;100.00;98902.09;6409228;22;45200;-85
2022/05/23 18:53:48;;;;;;;;;0.67;0.67;;;;;18.10;100.00;98889.78;6402576;22;45347;-86
2022/05/23 18:56:13;;;;;;;;;1.67;1.67;;;;;18.12;100.00;98879.13;6411257;22;46146;-86
2022/05/23 18:58:42;;;;;;;;;1.00;1.00;;;;;18.18;100.00;98897.63;6404577;22;45489;-86
2022/05/23 19:01:13;;;;;;;;;0.67;0.67;;;;;18.17;100.00;98907.38;6403017;22;45307;-86
2022/05/23 19:03:40;;;;;;;;;2.33;1.00;;;;;18.14;100.00;98901.25;6396474;22;45351;-87
2022/05/23 19:06:07;;;;;;;;;0.33;0.33;;;;;18.14;100.00;98901.25;6399588;22;45935;-85
2022/05/23 19:08:33;;;;;;;;;1.67;1.67;;;;;18.07;100.00;98898.66;6407587;22;45400;-84